Terminal Aerodrome Forecast
Issued by NWS Louisville, KY

Home | Current Version | Previous Version | Text Only | Print | Product List | Glossary On
Versions: 1 2 3 4 5 6 7 8 9 10 11 12 13 14 15
000
FTUS43 KLMK 240500
TAFSDF
TAF
KSDF 240520Z 2406/2512 18015G26KT P6SM -SHRA BKN016
     FM241000 20020G28KT P6SM -SHRA BKN008
     FM241300 21022G33KT P6SM -SHRA BKN010
     FM241500 23020G30KT P6SM -SHRA BKN015
     FM241800 24018G23KT P6SM BKN025
     FM250200 24012KT P6SM BKN025
     FM250800 24009KT P6SM SCT035=

USA.gov is the U.S. government's official web portal to all federal, state and local government web resources and services.